Time;durP1;ratioP1;P1;durP2;ratioP2;P2;SDS_P1;SDS_P2;PMS_P1;PMS_P2;Temp;Humidity;BMP_temperature;BMP_pressure;BME280_temperature;BME280_humidity;BME280_pressure;Samples;Min_cycle;Max_cycle;Signal;HPM_P1;HPM_P2
2022/12/31 00:00:39;;;;;;;0.70;0.43;;;13.40;99.90;;;;;;5056585;28;20192;-50
2022/12/31 00:03:07;;;;;;;0.57;0.43;;;13.40;99.90;;;;;;5056694;28;20219;-47
2022/12/31 00:05:34;;;;;;;0.53;0.40;;;13.40;99.90;;;;;;5056499;28;20240;-48
2022/12/31 00:08:00;;;;;;;0.30;0.30;;;13.40;99.90;;;;;;5056554;28;20536;-49
2022/12/31 00:10:26;;;;;;;0.57;0.33;;;13.40;99.90;;;;;;5039098;28;20181;-50
2022/12/31 00:12:52;;;;;;;0.20;0.20;;;13.50;99.90;;;;;;5056255;28;20212;-49
2022/12/31 00:15:18;;;;;;;0.30;0.30;;;13.50;99.90;;;;;;5057355;28;20552;-48
2022/12/31 00:17:43;;;;;;;0.73;0.33;;;13.50;99.90;;;;;;5057037;28;20238;-48
2022/12/31 00:20:09;;;;;;;0.30;0.30;;;13.60;99.90;;;;;;5057135;28;20188;-48
2022/12/31 00:22:35;;;;;;;0.73;0.30;;;13.60;99.90;;;;;;5057856;28;20600;-46
2022/12/31 00:25:00;;;;;;;0.77;0.27;;;13.60;99.90;;;;;;5057122;28;20176;-47
2022/12/31 00:27:29;;;;;;;0.57;0.20;;;13.60;99.90;;;;;;5056862;28;20176;-49
2022/12/31 00:29:55;;;;;;;0.10;0.10;;;13.70;99.90;;;;;;5056854;28;20187;-48
2022/12/31 00:32:20;;;;;;;0.20;0.20;;;13.70;99.90;;;;;;5056885;28;20212;-49
2022/12/31 00:34:46;;;;;;;0.20;0.20;;;13.80;99.90;;;;;;5057906;28;20176;-47
2022/12/31 00:37:11;;;;;;;0.27;0.27;;;13.90;99.90;;;;;;5056912;28;20636;-48
2022/12/31 00:39:37;;;;;;;0.20;0.20;;;13.90;99.90;;;;;;5057110;28;20233;-48
2022/12/31 00:42:03;;;;;;;0.20;0.20;;;13.90;99.90;;;;;;5056801;28;20208;-47
2022/12/31 00:44:29;;;;;;;0.50;0.30;;;13.90;99.90;;;;;;5056751;28;20183;-49
2022/12/31 00:46:54;;;;;;;0.27;0.20;;;13.90;99.90;;;;;;5056308;28;20176;-48
2022/12/31 00:49:20;;;;;;;0.23;0.23;;;14.00;99.90;;;;;;5056178;28;20191;-49
2022/12/31 00:51:46;;;;;;;0.73;0.27;;;13.90;99.90;;;;;;5056139;28;20208;-48
2022/12/31 00:54:12;;;;;;;0.23;0.20;;;14.00;99.90;;;;;;5056625;28;20271;-49
2022/12/31 00:56:38;;;;;;;0.20;0.20;;;14.10;99.90;;;;;;5056577;28;20637;-49
2022/12/31 00:59:03;;;;;;;0.10;0.10;;;14.20;99.90;;;;;;5056687;28;20245;-48
2022/12/31 01:01:32;;;;;;;0.53;0.30;;;14.20;99.90;;;;;;5038079;28;20219;-48
2022/12/31 01:04:01;;;;;;;0.27;0.20;;;14.30;99.90;;;;;;5056326;28;20172;-49
2022/12/31 01:06:26;;;;;;;0.20;0.20;;;14.30;99.90;;;;;;5056855;28;20298;-50
2022/12/31 01:08:54;;;;;;;0.10;0.10;;;14.40;99.90;;;;;;5056324;28;20195;-47
2022/12/31 01:11:23;;;;;;;0.10;0.10;;;14.40;99.90;;;;;;5056830;28;20200;-48
2022/12/31 01:14:04;;;;;;;0.20;0.20;;;14.40;99.90;;;;;;5057226;28;20605;-47
2022/12/31 01:16:33;;;;;;;0.20;0.20;;;14.50;99.90;;;;;;5056888;28;20187;-48
2022/12/31 01:19:00;;;;;;;0.40;0.40;;;14.60;99.90;;;;;;5057087;28;20175;-48
2022/12/31 01:21:27;;;;;;;0.10;0.10;;;14.60;99.90;;;;;;5057207;28;20250;-47
2022/12/31 01:23:53;;;;;;;1.73;0.20;;;14.70;99.90;;;;;;5057267;28;20172;-48
2022/12/31 01:26:20;;;;;;;0.10;0.10;;;14.70;99.90;;;;;;5057873;28;20180;-48
2022/12/31 01:28:46;;;;;;;0.20;0.20;;;14.70;99.90;;;;;;5057336;28;20226;-48
2022/12/31 01:31:14;;;;;;;0.10;0.10;;;14.70;99.90;;;;;;5057746;28;20246;-46
2022/12/31 01:33:40;;;;;;;0.20;0.20;;;14.70;99.90;;;;;;5057006;28;20172;-49
2022/12/31 01:36:14;;;;;;;0.13;0.13;;;14.80;99.90;;;;;;5056806;28;20298;-48
2022/12/31 01:38:40;;;;;;;0.20;0.20;;;14.80;99.90;;;;;;5057230;28;20503;-47
2022/12/31 01:41:07;;;;;;;0.20;0.20;;;14.80;99.90;;;;;;5056843;28;20275;-46
2022/12/31 01:44:00;;;;;;;0.10;0.10;;;14.80;99.90;;;;;;5056708;28;20200;-48
2022/12/31 01:46:37;;;;;;;0.10;0.10;;;14.90;99.90;;;;;;5057444;28;20516;-47
2022/12/31 01:49:15;;;;;;;0.10;0.10;;;14.90;99.90;;;;;;5056899;28;20168;-48
2022/12/31 01:51:47;;;;;;;0.97;0.20;;;14.80;99.90;;;;;;5057487;28;20300;-49
2022/12/31 01:54:16;;;;;;;0.10;0.10;;;14.90;99.90;;;;;;5057415;28;20222;-49
2022/12/31 01:56:44;;;;;;;0.20;0.20;;;14.80;99.90;;;;;;5057536;28;20202;-48
2022/12/31 01:59:11;;;;;;;0.20;0.20;;;14.90;99.90;;;;;;5057236;28;20592;-47
2022/12/31 02:01:37;;;;;;;0.20;0.20;;;14.80;99.90;;;;;;5057284;28;20269;-47
2022/12/31 02:04:07;;;;;;;0.20;0.20;;;14.80;99.90;;;;;;5057346;28;20184;-48
2022/12/31 02:06:44;;;;;;;0.20;0.20;;;14.90;99.90;;;;;;5057562;28;20156;-48
2022/12/31 02:09:10;;;;;;;0.20;0.20;;;14.90;99.90;;;;;;5057703;28;20215;-47
2022/12/31 02:11:36;;;;;;;0.27;0.20;;;14.90;99.90;;;;;;5057491;28;20215;-48
2022/12/31 02:14:13;;;;;;;0.10;0.10;;;14.90;99.90;;;;;;5057436;28;20187;-48
2022/12/31 02:17:00;;;;;;;0.20;0.20;;;14.90;99.90;;;;;;5057232;28;20191;-50
2022/12/31 02:19:31;;;;;;;0.40;0.20;;;14.90;99.90;;;;;;5057383;28;20176;-49
2022/12/31 02:22:08;;;;;;;1.37;0.30;;;14.90;99.90;;;;;;5056365;28;20215;-50
2022/12/31 02:24:49;;;;;;;0.20;0.20;;;14.90;99.90;;;;;;5057536;28;20168;-49
2022/12/31 02:27:23;;;;;;;0.27;0.27;;;14.90;99.90;;;;;;5057388;28;20171;-47
2022/12/31 02:30:15;;;;;;;0.33;0.20;;;15.00;99.90;;;;;;5057560;28;20176;-49
2022/12/31 02:32:51;;;;;;;0.20;0.20;;;15.00;99.90;;;;;;5057145;28;20552;-47
2022/12/31 02:35:31;;;;;;;0.30;0.30;;;15.00;99.90;;;;;;5057280;28;20309;-49
2022/12/31 02:38:09;;;;;;;0.20;0.20;;;15.00;99.90;;;;;;5057052;28;20179;-48
2022/12/31 02:40:37;;;;;;;0.20;0.20;;;15.00;99.90;;;;;;5057035;28;20168;-48
2022/12/31 02:43:03;;;;;;;0.50;0.20;;;15.00;99.90;;;;;;5056567;28;20748;-47
2022/12/31 02:45:40;;;;;;;0.57;0.40;;;15.00;99.90;;;;;;5056481;28;20214;-50
2022/12/31 02:48:17;;;;;;;0.20;0.20;;;15.10;99.90;;;;;;5038922;28;20176;-49
2022/12/31 02:50:56;;;;;;;1.17;0.30;;;15.00;99.90;;;;;;5056043;28;20266;-49
2022/12/31 02:53:41;;;;;;;1.13;0.40;;;15.10;99.90;;;;;;5055814;28;20214;-48
2022/12/31 02:56:22;;;;;;;0.30;0.27;;;15.10;99.90;;;;;;5057392;28;20597;-49
2022/12/31 03:04:32;;;;;;;0.20;0.20;;;15.10;99.90;;;;;;5056652;28;20631;-48
2022/12/31 03:07:10;;;;;;;0.20;0.20;;;15.20;99.90;;;;;;5056044;28;20176;-49
2022/12/31 03:09:36;;;;;;;0.50;0.20;;;15.10;99.90;;;;;;5054963;28;20213;-49
2022/12/31 03:14:49;;;;;;;0.20;0.20;;;15.10;99.90;;;;;;5053379;28;20171;-49
2022/12/31 03:17:15;;;;;;;1.73;0.33;;;15.20;99.90;;;;;;5053123;28;20256;-50
2022/12/31 03:22:29;;;;;;;1.70;0.30;;;15.10;99.90;;;;;;5052811;28;20227;-48
2022/12/31 03:27:52;;;;;;;0.23;0.23;;;14.80;99.90;;;;;;5052900;28;20168;-49
2022/12/31 03:30:19;;;;;;;3.73;0.40;;;14.80;99.90;;;;;;5052698;28;20180;-49
2022/12/31 03:32:47;;;;;;;0.80;0.37;;;14.80;99.90;;;;;;5053509;28;20204;-48
2022/12/31 03:35:15;;;;;;;1.73;0.20;;;14.70;99.90;;;;;;5056773;28;20187;-48
2022/12/31 03:37:42;;;;;;;0.30;0.30;;;14.80;99.90;;;;;;5056647;28;20539;-48
2022/12/31 03:40:09;;;;;;;0.47;0.17;;;14.70;99.90;;;;;;5056606;28;20279;-50
2022/12/31 03:42:35;;;;;;;0.77;0.30;;;14.80;99.90;;;;;;5056040;28;20264;-49
2022/12/31 03:45:02;;;;;;;1.03;0.20;;;14.70;99.90;;;;;;5056209;28;20176;-48
2022/12/31 03:47:28;;;;;;;0.20;0.20;;;14.80;99.90;;;;;;5056247;28;20261;-48
2022/12/31 03:49:53;;;;;;;0.30;0.30;;;14.80;99.90;;;;;;5056061;28;20199;-49
2022/12/31 03:52:19;;;;;;;0.20;0.20;;;14.80;99.90;;;;;;5055934;28;20213;-49
2022/12/31 03:54:45;;;;;;;0.37;0.30;;;14.80;99.90;;;;;;5056572;28;20233;-50
2022/12/31 03:57:11;;;;;;;0.43;0.30;;;14.80;99.90;;;;;;5056184;28;20571;-49
2022/12/31 03:59:36;;;;;;;0.90;0.20;;;14.80;99.90;;;;;;5056213;28;20241;-48
2022/12/31 04:02:02;;;;;;;0.53;0.30;;;14.80;99.90;;;;;;5055998;28;20699;-49
2022/12/31 04:04:28;;;;;;;1.33;0.30;;;14.80;99.90;;;;;;5056275;28;20179;-50
2022/12/31 04:06:53;;;;;;;0.40;0.20;;;14.80;99.90;;;;;;5038690;28;20221;-49
2022/12/31 04:09:19;;;;;;;0.80;0.30;;;14.80;99.90;;;;;;5056490;28;20172;-50
2022/12/31 04:11:44;;;;;;;0.67;0.40;;;14.80;99.90;;;;;;5056988;28;20199;-48
2022/12/31 04:14:10;;;;;;;1.50;0.40;;;14.90;99.90;;;;;;5056045;28;20660;-49
2022/12/31 04:16:36;;;;;;;0.50;0.30;;;14.90;99.90;;;;;;5055858;28;20188;-48
2022/12/31 04:19:02;;;;;;;0.97;0.40;;;14.90;99.90;;;;;;5055659;28;20176;-49
2022/12/31 04:21:28;;;;;;;1.67;0.53;;;15.00;99.90;;;;;;5055728;28;20202;-49
2022/12/31 04:23:53;;;;;;;0.77;0.30;;;14.90;99.90;;;;;;5055593;28;20179;-51
2022/12/31 04:26:19;;;;;;;0.23;0.23;;;15.00;99.90;;;;;;5056188;28;20176;-48
2022/12/31 04:28:44;;;;;;;0.47;0.30;;;14.90;99.90;;;;;;5055452;28;20218;-49
2022/12/31 04:31:10;;;;;;;0.20;0.20;;;15.00;99.90;;;;;;5055411;28;20618;-50
2022/12/31 04:33:36;;;;;;;2.87;0.37;;;15.00;99.90;;;;;;5055325;28;20551;-49
2022/12/31 04:36:04;;;;;;;0.57;0.30;;;15.10;99.90;;;;;;5055530;28;20177;-49
2022/12/31 04:38:29;;;;;;;2.10;0.40;;;15.10;99.90;;;;;;5055474;28;20184;-50
2022/12/31 04:43:39;;;;;;;0.47;0.30;;;15.10;99.90;;;;;;5054898;28;20284;-49
2022/12/31 04:46:06;;;;;;;2.53;0.40;;;15.20;99.90;;;;;;5055035;28;20619;-50
2022/12/31 04:48:32;;;;;;;0.67;0.33;;;15.20;99.90;;;;;;5056178;28;20229;-51
2022/12/31 04:50:57;;;;;;;0.40;0.40;;;15.20;99.90;;;;;;5055154;28;20257;-50
2022/12/31 04:53:23;;;;;;;2.57;0.30;;;15.20;99.90;;;;;;5055334;28;20723;-50
2022/12/31 04:55:49;;;;;;;2.83;0.30;;;15.30;99.90;;;;;;5054938;28;20555;-50
2022/12/31 04:58:15;;;;;;;0.80;0.50;;;15.20;99.90;;;;;;5055323;28;20180;-48
2022/12/31 05:00:40;;;;;;;0.87;0.30;;;15.20;99.90;;;;;;5054865;28;20188;-49
2022/12/31 05:03:06;;;;;;;0.33;0.30;;;15.30;99.90;;;;;;5054875;28;20301;-48
2022/12/31 05:05:32;;;;;;;0.40;0.30;;;15.20;99.90;;;;;;5054809;28;20201;-50
2022/12/31 05:07:57;;;;;;;0.27;0.27;;;15.20;99.90;;;;;;5036860;28;20184;-49
2022/12/31 05:10:23;;;;;;;1.10;0.50;;;15.20;99.90;;;;;;5054791;28;20212;-50
2022/12/31 05:12:48;;;;;;;1.00;0.30;;;15.20;99.90;;;;;;5055019;28;20196;-48
2022/12/31 05:15:14;;;;;;;0.93;0.40;;;15.20;99.90;;;;;;5054728;28;20215;-51
2022/12/31 05:17:39;;;;;;;2.90;0.43;;;15.20;99.90;;;;;;5054937;28;20184;-50
2022/12/31 05:20:05;;;;;;;2.43;0.40;;;15.20;99.90;;;;;;5036823;28;20184;-50
2022/12/31 05:22:31;;;;;;;2.27;0.40;;;15.20;99.90;;;;;;5054737;28;20204;-50
2022/12/31 05:24:58;;;;;;;0.40;0.40;;;15.20;99.90;;;;;;5054341;28;20543;-50
2022/12/31 05:27:25;;;;;;;3.03;0.40;;;15.20;99.90;;;;;;5054587;28;20180;-50
2022/12/31 05:29:50;;;;;;;0.93;0.40;;;15.20;99.90;;;;;;5054454;28;20310;-50
2022/12/31 05:32:16;;;;;;;1.80;0.60;;;15.30;99.90;;;;;;5054166;28;20242;-51
2022/12/31 05:34:42;;;;;;;1.50;0.53;;;15.30;99.90;;;;;;5054444;28;20182;-51
2022/12/31 05:37:07;;;;;;;0.40;0.40;;;15.20;99.90;;;;;;5054293;28;20179;-51
2022/12/31 05:39:33;;;;;;;0.97;0.37;;;15.20;99.90;;;;;;5054138;28;20176;-51
2022/12/31 05:41:59;;;;;;;2.23;0.60;;;15.20;99.90;;;;;;5054019;28;20253;-51
2022/12/31 05:44:24;;;;;;;1.67;0.40;;;15.20;99.90;;;;;;5054499;28;20601;-49
2022/12/31 05:46:50;;;;;;;1.77;0.50;;;15.30;99.90;;;;;;5054333;28;20250;-50
2022/12/31 05:49:15;;;;;;;0.77;0.37;;;15.20;99.90;;;;;;5054069;28;20180;-49
2022/12/31 05:51:41;;;;;;;1.07;0.30;;;15.30;99.90;;;;;;5054088;28;20626;-51
2022/12/31 05:54:06;;;;;;;2.07;0.50;;;15.30;99.90;;;;;;5054099;28;20652;-52
2022/12/31 05:56:32;;;;;;;3.30;0.50;;;15.30;99.90;;;;;;5053472;28;20678;-50
2022/12/31 05:58:57;;;;;;;0.57;0.43;;;15.30;99.90;;;;;;5053805;28;20192;-50
2022/12/31 06:01:23;;;;;;;0.63;0.40;;;15.40;99.90;;;;;;5053456;28;20224;-50
2022/12/31 06:03:49;;;;;;;0.90;0.60;;;15.40;99.90;;;;;;5054122;28;20649;-51
2022/12/31 06:06:14;;;;;;;1.80;0.60;;;15.40;99.90;;;;;;5053744;28;20578;-49
2022/12/31 06:08:40;;;;;;;4.30;0.90;;;15.40;99.90;;;;;;5053645;28;20183;-50
2022/12/31 06:11:05;;;;;;;1.63;0.40;;;15.50;99.90;;;;;;5053727;28;20264;-49
2022/12/31 06:13:31;;;;;;;5.93;0.80;;;15.50;99.90;;;;;;5053939;28;20281;-51
2022/12/31 06:15:56;;;;;;;1.73;0.33;;;15.50;99.90;;;;;;5053673;28;20187;-50
2022/12/31 06:18:22;;;;;;;0.53;0.40;;;15.50;99.90;;;;;;5053679;28;20188;-50
2022/12/31 06:20:47;;;;;;;2.00;0.50;;;15.50;99.90;;;;;;5053355;28;20180;-51
2022/12/31 06:23:13;;;;;;;1.37;0.50;;;15.60;99.90;;;;;;5053330;28;20617;-51
2022/12/31 06:25:39;;;;;;;0.73;0.40;;;15.60;99.90;;;;;;5053723;28;20670;-50
2022/12/31 06:28:05;;;;;;;3.47;0.67;;;15.60;99.90;;;;;;5053260;28;20179;-50
2022/12/31 06:30:31;;;;;;;2.67;0.47;;;15.60;99.90;;;;;;5053465;28;20188;-50
2022/12/31 06:32:56;;;;;;;1.17;0.60;;;15.60;99.90;;;;;;5053554;28;20278;-51
2022/12/31 06:35:22;;;;;;;3.67;0.60;;;15.60;99.90;;;;;;5053260;28;20598;-50
2022/12/31 06:37:48;;;;;;;1.53;0.50;;;15.50;99.90;;;;;;5053535;28;20555;-50
2022/12/31 06:40:13;;;;;;;1.13;0.53;;;15.50;99.90;;;;;;5053111;28;20683;-48
2022/12/31 06:42:41;;;;;;;0.77;0.53;;;15.50;99.90;;;;;;5053088;28;20579;-51
2022/12/31 06:45:07;;;;;;;2.43;0.63;;;15.50;99.90;;;;;;5053620;28;20176;-50
2022/12/31 06:47:32;;;;;;;1.30;0.67;;;15.50;99.90;;;;;;5053274;28;20571;-50
2022/12/31 06:49:58;;;;;;;0.90;0.50;;;15.50;99.90;;;;;;5053562;28;20191;-49
2022/12/31 06:52:23;;;;;;;2.90;0.70;;;15.40;99.90;;;;;;5053324;28;20211;-51
2022/12/31 06:54:49;;;;;;;1.27;0.30;;;15.40;99.90;;;;;;5053992;28;20191;-49
2022/12/31 06:57:16;;;;;;;4.07;0.63;;;15.40;99.90;;;;;;5053335;28;20184;-49
2022/12/31 06:59:43;;;;;;;3.23;0.90;;;15.50;99.90;;;;;;5053359;28;20184;-48
2022/12/31 07:02:46;;;;;;;3.20;0.73;;;15.50;99.90;;;;;;5052882;28;20216;-50
2022/12/31 07:05:38;;;;;;;1.93;0.80;;;15.60;99.90;;;;;;5053195;28;20767;-50
2022/12/31 07:08:12;;;;;;;1.60;0.70;;;15.60;99.90;;;;;;5056303;28;20647;-49
2022/12/31 07:10:58;;;;;;;4.63;0.53;;;15.60;99.90;;;;;;5057392;28;20629;-50
2022/12/31 07:13:42;;;;;;;1.03;0.50;;;15.50;99.90;;;;;;5057436;28;20172;-50
2022/12/31 07:16:39;;;;;;;0.83;0.50;;;15.50;99.90;;;;;;5057304;28;20189;-50
2022/12/31 07:19:08;;;;;;;1.90;0.70;;;15.50;99.90;;;;;;5056879;28;20172;-49
2022/12/31 07:21:37;;;;;;;0.57;0.43;;;15.60;99.90;;;;;;5057190;28;20211;-49
2022/12/31 07:24:07;;;;;;;1.80;0.67;;;15.60;99.90;;;;;;5057169;28;20556;-50
2022/12/31 07:27:17;;;;;;;4.23;0.80;;;15.60;99.90;;;;;;5057934;28;20241;-50
2022/12/31 07:29:50;;;;;;;1.00;0.60;;;15.70;99.90;;;;;;4956578;29;20194;-50
2022/12/31 07:32:36;;;;;;;1.17;0.60;;;15.70;99.90;;;;;;5040740;28;20222;-50
2022/12/31 07:35:29;;;;;;;1.30;0.60;;;15.70;99.90;;;;;;5057259;28;20161;-50
2022/12/31 07:38:05;;;;;;;4.80;0.80;;;15.80;99.90;;;;;;5057044;28;20203;-50
2022/12/31 07:40:51;;;;;;;1.60;0.70;;;15.80;99.90;;;;;;5057280;28;20202;-49
2022/12/31 07:43:37;;;;;;;1.23;0.53;;;15.70;99.90;;;;;;5056742;28;20196;-50
2022/12/31 07:46:32;;;;;;;2.03;0.80;;;15.70;99.90;;;;;;5056554;28;20214;-48
2022/12/31 07:48:58;;;;;;;1.90;0.43;;;15.80;99.90;;;;;;5033287;28;20558;-49
2022/12/31 07:51:24;;;;;;;4.23;0.80;;;15.80;99.90;;;;;;5056110;28;20200;-49
2022/12/31 07:53:49;;;;;;;2.47;0.87;;;15.80;99.90;;;;;;5057015;28;20172;-50
2022/12/31 07:56:15;;;;;;;1.90;0.73;;;15.80;99.90;;;;;;5056559;28;20177;-48
2022/12/31 07:59:13;;;;;;;4.13;0.80;;;15.80;99.90;;;;;;5056215;28;20655;-49
2022/12/31 08:01:56;;;;;;;3.07;0.87;;;15.70;99.90;;;;;;5056038;28;20563;-49
2022/12/31 08:04:24;;;;;;;1.60;0.70;;;15.70;99.90;;;;;;5056404;28;20168;-49
2022/12/31 08:07:15;;;;;;;5.13;0.70;;;15.60;99.90;;;;;;5056101;28;20183;-49
2022/12/31 08:10:05;;;;;;;1.30;0.80;;;15.70;99.90;;;;;;5056196;28;20192;-47
2022/12/31 08:12:33;;;;;;;2.87;0.83;;;15.70;99.90;;;;;;5056012;28;20204;-50
2022/12/31 08:14:59;;;;;;;0.83;0.50;;;15.70;99.90;;;;;;5055992;28;20202;-49
2022/12/31 08:17:25;;;;;;;0.93;0.60;;;15.70;99.90;;;;;;5057185;28;20184;-49
2022/12/31 08:19:51;;;;;;;4.27;1.03;;;15.80;99.90;;;;;;5055894;28;20199;-49
2022/12/31 08:22:56;;;;;;;0.67;0.30;;;15.80;99.90;;;;;;5055829;28;20231;-48
2022/12/31 08:25:29;;;;;;;0.40;0.40;;;15.80;99.90;;;;;;5056264;28;20235;-49
2022/12/31 08:28:06;;;;;;;3.27;0.80;;;15.80;99.90;;;;;;5055739;28;20261;-49
2022/12/31 08:30:43;;;;;;;1.93;0.80;;;15.80;99.90;;;;;;5056199;28;20179;-50
2022/12/31 08:33:35;;;;;;;2.00;0.83;;;15.80;99.90;;;;;;5055422;28;20561;-50
2022/12/31 08:36:28;;;;;;;2.60;0.73;;;15.90;99.90;;;;;;5055641;28;20251;-50
2022/12/31 08:39:09;;;;;;;3.17;0.60;;;15.90;99.90;;;;;;5055743;28;20182;-48
2022/12/31 08:41:45;;;;;;;6.27;0.90;;;15.90;99.90;;;;;;5055257;28;20203;-48
2022/12/31 08:44:17;;;;;;;1.90;0.93;;;15.90;99.90;;;;;;5055599;28;20169;-49
2022/12/31 08:46:57;;;;;;;3.47;0.70;;;16.00;99.90;;;;;;5056100;28;20524;-49
2022/12/31 08:49:26;;;;;;;1.73;0.80;;;16.00;99.90;;;;;;5037557;28;20690;-48
2022/12/31 08:51:52;;;;;;;2.03;0.70;;;16.10;99.90;;;;;;5055179;28;20211;-50
2022/12/31 08:54:18;;;;;;;2.13;0.77;;;16.10;99.90;;;;;;5055118;28;20645;-50
2022/12/31 08:57:11;;;;;;;1.00;0.67;;;16.10;99.90;;;;;;5055261;28;20180;-49
2022/12/31 09:00:00;;;;;;;2.30;0.80;;;16.20;99.90;;;;;;5055321;28;20607;-50
2022/12/31 09:02:57;;;;;;;2.23;0.53;;;16.20;99.90;;;;;;5040198;28;20326;-49
2022/12/31 09:05:39;;;;;;;0.60;0.60;;;16.20;99.90;;;;;;5055997;28;20234;-49
2022/12/31 09:08:22;;;;;;;3.07;0.80;;;16.20;99.90;;;;;;5056000;28;20161;-49
2022/12/31 09:11:07;;;;;;;2.07;0.97;;;16.20;99.90;;;;;;5055827;28;20175;-50
2022/12/31 09:14:10;;;;;;;2.23;0.90;;;16.20;99.90;;;;;;5055918;28;20180;-48
2022/12/31 09:16:56;;;;;;;2.30;0.90;;;16.20;99.90;;;;;;5055991;28;20254;-49
2022/12/31 09:19:22;;;;;;;3.17;0.80;;;16.30;99.90;;;;;;5056223;28;20179;-48
2022/12/31 09:21:49;;;;;;;2.10;1.00;;;16.30;99.90;;;;;;5055761;28;20211;-50
2022/12/31 09:24:15;;;;;;;2.70;0.70;;;16.40;99.90;;;;;;5056168;28;20195;-50
2022/12/31 09:27:14;;;;;;;1.87;0.80;;;16.40;99.90;;;;;;5055817;28;20180;-50
2022/12/31 09:30:02;;;;;;;3.53;1.00;;;16.50;99.90;;;;;;5054551;28;20184;-48
2022/12/31 09:32:54;;;;;;;2.33;1.00;;;16.50;99.90;;;;;;5054974;28;20216;-50
2022/12/31 09:35:40;;;;;;;2.33;1.00;;;16.50;99.90;;;;;;5037782;28;20200;-49
2022/12/31 09:38:17;;;;;;;6.80;1.10;;;16.50;99.90;;;;;;5054881;28;20170;-49
2022/12/31 09:40:51;;;;;;;5.93;0.83;;;16.50;99.90;;;;;;5054250;28;20180;-50
2022/12/31 09:43:35;;;;;;;3.43;1.03;;;16.60;99.90;;;;;;5054303;28;20723;-49
2022/12/31 09:46:38;;;;;;;3.53;0.53;;;16.60;99.90;;;;;;5055125;28;20167;-48
2022/12/31 09:49:33;;;;;;;5.13;0.63;;;16.60;99.90;;;;;;5055962;28;20179;-48
2022/12/31 09:52:17;;;;;;;2.10;1.07;;;16.60;99.90;;;;;;5055765;28;20265;-50
2022/12/31 09:55:12;;;;;;;6.40;1.10;;;16.60;99.90;;;;;;5055927;28;20215;-49
2022/12/31 09:57:40;;;;;;;1.60;0.80;;;16.60;99.90;;;;;;4967796;28;20227;-49
2022/12/31 10:00:27;;;;;;;2.00;0.70;;;16.60;99.90;;;;;;5055989;28;20179;-50
2022/12/31 10:03:01;;;;;;;2.23;0.50;;;16.60;99.90;;;;;;5055934;28;20204;-50
2022/12/31 10:05:51;;;;;;;3.23;0.90;;;16.60;99.90;;;;;;5056320;28;20187;-48
2022/12/31 10:08:28;;;;;;;3.67;0.90;;;16.60;99.90;;;;;;5056700;28;20632;-49
2022/12/31 10:11:34;;;;;;;2.10;1.00;;;16.70;99.90;;;;;;5057498;28;20253;-51
2022/12/31 10:14:32;;;;;;;6.00;1.13;;;16.70;99.90;;;;;;5006746;28;20663;-50
2022/12/31 10:17:21;;;;;;;3.00;0.63;;;16.70;99.90;;;;;;5058066;28;20243;-49
2022/12/31 10:20:40;;;;;;;1.40;0.73;;;16.80;99.90;;;;;;5057689;28;20216;-49
2022/12/31 10:23:23;;;;;;;4.67;1.07;;;16.80;99.90;;;;;;4957364;29;20199;-48
2022/12/31 10:26:07;;;;;;;3.27;0.83;;;16.90;99.90;;;;;;4957187;29;20208;-49
2022/12/31 10:29:08;;;;;;;1.93;0.90;;;16.90;99.90;;;;;;5037831;28;20199;-49
2022/12/31 10:31:46;;;;;;;3.50;0.83;;;16.90;99.90;;;;;;5034480;28;20212;-50
2022/12/31 10:34:24;;;;;;;4.43;1.00;;;16.90;99.90;;;;;;5056378;28;20606;-49
2022/12/31 10:37:15;;;;;;;3.13;1.10;;;16.90;99.90;;;;;;5055570;28;20160;-50
2022/12/31 10:40:10;;;;;;;2.90;1.00;;;16.90;99.90;;;;;;5056028;28;20172;-49
2022/12/31 10:42:57;;;;;;;2.97;1.00;;;16.90;99.90;;;;;;5054844;28;20236;-48
2022/12/31 10:45:43;;;;;;;1.63;0.70;;;16.90;99.90;;;;;;5054454;28;20164;-49
2022/12/31 10:48:12;;;;;;;3.07;0.80;;;16.80;99.90;;;;;;5054895;28;20224;-49
2022/12/31 10:51:24;;;;;;;3.43;0.93;;;16.80;99.90;;;;;;5054173;28;20176;-47
2022/12/31 10:54:20;;;;;;;3.23;0.80;;;16.90;99.90;;;;;;5054658;28;20270;-49
2022/12/31 10:57:05;;;;;;;3.40;0.90;;;16.90;99.90;;;;;;5054356;28;20210;-50
2022/12/31 10:59:58;;;;;;;2.00;0.97;;;16.90;99.90;;;;;;5054911;28;20593;-51
2022/12/31 11:03:02;;;;;;;3.37;0.93;;;17.00;99.90;;;;;;5053923;28;20270;-49
2022/12/31 11:05:46;;;;;;;1.30;0.57;;;17.00;99.90;;;;;;5054748;28;20597;-50
2022/12/31 11:08:29;;;;;;;2.37;0.80;;;17.00;99.90;;;;;;5054525;28;20170;-49
2022/12/31 11:11:18;;;;;;;3.50;1.00;;;17.10;99.90;;;;;;5054005;28;20605;-48
2022/12/31 11:14:03;;;;;;;3.43;0.93;;;17.20;99.90;;;;;;5054045;28;20164;-48
2022/12/31 11:17:00;;;;;;;3.67;0.80;;;17.20;99.90;;;;;;5054320;28;20625;-48
2022/12/31 11:19:59;;;;;;;5.17;0.77;;;17.30;99.90;;;;;;5040641;28;20561;-49
2022/12/31 11:22:31;;;;;;;6.13;0.93;;;17.40;99.90;;;;;;5053664;28;20699;-49
2022/12/31 11:25:19;;;;;;;3.27;0.80;;;17.40;99.90;;;;;;5053857;28;20164;-48
2022/12/31 11:28:16;;;;;;;2.13;0.90;;;17.40;99.90;;;;;;5054232;28;20169;-49
2022/12/31 11:31:09;;;;;;;4.17;0.80;;;17.40;99.90;;;;;;5053596;28;20621;-50
2022/12/31 11:33:49;;;;;;;1.60;0.90;;;17.30;99.90;;;;;;5053448;28;20169;-49
2022/12/31 11:36:37;;;;;;;6.27;1.00;;;17.30;99.90;;;;;;5053027;28;20169;-48
2022/12/31 11:39:39;;;;;;;1.33;0.80;;;17.20;99.90;;;;;;5053086;28;20644;-48
2022/12/31 11:42:24;;;;;;;2.07;0.70;;;17.20;99.90;;;;;;5052749;28;20679;-48
2022/12/31 11:45:22;;;;;;;3.80;1.47;;;17.20;99.90;;;;;;5052730;28;20620;-48
2022/12/31 11:48:10;;;;;;;3.50;0.90;;;17.20;99.90;;;;;;5035259;28;20660;-50
2022/12/31 11:50:53;;;;;;;2.83;1.00;;;17.20;99.90;;;;;;5052927;28;20164;-48
2022/12/31 11:53:49;;;;;;;3.63;0.80;;;17.10;99.90;;;;;;5052983;28;20242;-48
2022/12/31 11:56:18;;;;;;;1.80;1.00;;;17.10;99.90;;;;;;5056571;28;20157;-48
2022/12/31 11:58:54;;;;;;;1.80;0.80;;;17.20;99.90;;;;;;5056278;28;20172;-50
2022/12/31 12:01:35;;;;;;;3.80;0.97;;;17.20;99.90;;;;;;5056243;28;20582;-48
2022/12/31 12:04:00;;;;;;;1.80;0.97;;;17.30;99.90;;;;;;5056457;28;20192;-51
2022/12/31 12:06:31;;;;;;;2.43;1.10;;;17.30;99.90;;;;;;5055845;28;20211;-50
2022/12/31 12:09:09;;;;;;;2.67;0.87;;;17.30;99.90;;;;;;5056322;28;20165;-52
2022/12/31 12:11:37;;;;;;;2.30;1.03;;;17.40;99.90;;;;;;5055910;28;20601;-50
2022/12/31 12:14:29;;;;;;;3.00;0.97;;;17.40;99.90;;;;;;5056035;28;20185;-50
2022/12/31 12:16:56;;;;;;;3.00;0.80;;;17.40;99.90;;;;;;5055767;28;20629;-50
2022/12/31 12:19:25;;;;;;;6.23;1.00;;;17.40;99.90;;;;;;5055464;28;20187;-50
2022/12/31 12:21:51;;;;;;;1.90;0.83;;;17.30;99.90;;;;;;5055571;28;20188;-48
2022/12/31 12:24:25;;;;;;;3.77;1.03;;;17.30;99.90;;;;;;5056181;28;20181;-50
2022/12/31 12:26:51;;;;;;;2.33;0.90;;;17.20;99.90;;;;;;5055947;28;20572;-49
2022/12/31 12:29:21;;;;;;;2.87;0.80;;;17.30;99.90;;;;;;5055957;28;20202;-50
2022/12/31 12:32:04;;;;;;;2.73;1.00;;;17.20;99.90;;;;;;5056303;28;20235;-49
2022/12/31 12:34:38;;;;;;;1.43;1.10;;;17.20;99.90;;;;;;5056458;28;20164;-49
2022/12/31 12:37:23;;;;;;;5.57;1.30;;;17.20;99.90;;;;;;5055746;28;20620;-48
2022/12/31 12:40:19;;;;;;;1.57;0.90;;;17.20;99.90;;;;;;5055935;28;20168;-49
2022/12/31 12:42:49;;;;;;;4.37;1.10;;;17.30;99.90;;;;;;5045795;28;20231;-48
2022/12/31 12:45:23;;;;;;;5.03;1.53;;;17.20;99.90;;;;;;5055329;28;20199;-47
2022/12/31 12:48:01;;;;;;;1.23;0.80;;;17.20;99.90;;;;;;5055570;28;20156;-48
2022/12/31 12:50:47;;;;;;;4.00;1.10;;;17.20;99.90;;;;;;5055379;28;20632;-47
2022/12/31 12:53:26;;;;;;;2.87;1.03;;;17.20;99.90;;;;;;5037360;28;20195;-45
2022/12/31 12:56:07;;;;;;;2.33;1.00;;;17.10;99.90;;;;;;5055333;28;20616;-47
2022/12/31 12:59:16;;;;;;;1.80;0.90;;;17.10;99.90;;;;;;5055583;28;20169;-47
2022/12/31 13:02:05;;;;;;;2.37;0.90;;;17.10;99.90;;;;;;5020498;28;20224;-47
2022/12/31 13:05:00;;;;;;;1.90;1.00;;;17.10;99.90;;;;;;5041334;28;20219;-46
2022/12/31 13:07:36;;;;;;;2.73;1.07;;;17.00;99.90;;;;;;5055437;28;20495;-49
2022/12/31 13:10:09;;;;;;;2.37;1.00;;;16.90;99.90;;;;;;5055076;28;20156;-46
2022/12/31 13:13:03;;;;;;;3.87;1.10;;;16.80;99.90;;;;;;5055069;28;20199;-48
2022/12/31 13:15:51;;;;;;;1.47;0.87;;;16.80;99.90;;;;;;5055046;28;20585;-48
2022/12/31 13:18:27;;;;;;;9.97;0.93;;;16.80;99.90;;;;;;5054722;28;20164;-47
2022/12/31 13:21:18;;;;;;;3.23;1.00;;;16.70;99.90;;;;;;5055059;28;20166;-48
2022/12/31 13:24:23;;;;;;;3.63;1.17;;;16.70;99.90;;;;;;5054723;28;20195;-47
2022/12/31 13:26:58;;;;;;;5.33;1.40;;;16.60;99.90;;;;;;5054495;28;20609;-47
2022/12/31 13:29:30;;;;;;;5.30;1.30;;;16.60;99.90;;;;;;5054419;28;20249;-48
2022/12/31 13:31:57;;;;;;;4.17;1.07;;;16.50;99.90;;;;;;5054379;28;20202;-46
2022/12/31 13:34:29;;;;;;;5.17;1.10;;;16.40;99.90;;;;;;5054372;28;20611;-46
2022/12/31 13:36:59;;;;;;;2.50;1.10;;;16.40;99.90;;;;;;5054223;28;20621;-46
2022/12/31 13:39:29;;;;;;;2.70;1.20;;;16.20;99.90;;;;;;5054189;28;20181;-47
2022/12/31 13:42:01;;;;;;;5.30;1.20;;;16.20;99.90;;;;;;5055023;28;20212;-46
2022/12/31 13:44:43;;;;;;;3.77;1.40;;;16.10;99.90;;;;;;5054428;28;20526;-48